Time;durP1;ratioP1;P1;durP2;ratioP2;P2;SDS_P1;SDS_P2;PMS_P1;PMS_P2;Temp;Humidity;BMP_temperature;BMP_pressure;BME280_temperature;BME280_humidity;BME280_pressure;Samples;Min_cycle;Max_cycle;Signal;HPM_P1;HPM_P2
2022/02/16 10:11:57;;;;;;;12.27;11.63;;;7.50;99.90;;;;;;5083160;28;20666;-70
2022/02/16 10:14:27;;;;;;;12.70;12.00;;;8.70;99.90;;;;;;5083322;28;20478;-70
2022/02/16 10:16:53;;;;;;;11.97;11.57;;;8.70;99.90;;;;;;5083299;28;20451;-70
2022/02/16 10:19:20;;;;;;;11.80;11.30;;;8.80;99.90;;;;;;5083279;28;20850;-70
2022/02/16 10:22:08;;;;;;;11.13;10.77;;;8.90;99.90;;;;;;5083137;28;20498;-70
2022/02/16 10:24:36;;;;;;;11.23;10.83;;;8.90;99.90;;;;;;5083234;28;20477;-69
2022/02/16 10:27:05;;;;;;;11.37;10.80;;;9.00;99.90;;;;;;5083214;28;20447;-68
2022/02/16 10:29:34;;;;;;;10.43;10.13;;;9.00;99.90;;;;;;5083073;28;20534;-69
2022/02/16 10:32:01;;;;;;;10.47;10.17;;;9.10;99.90;;;;;;5083201;28;20447;-69
2022/02/16 10:34:50;;;;;;;10.53;9.97;;;9.10;99.90;;;;;;5083410;28;20453;-69
2022/02/16 10:37:18;;;;;;;9.83;9.53;;;9.20;99.90;;;;;;5083172;28;20450;-70
2022/02/16 10:40:00;;;;;;;10.10;9.80;;;9.30;99.90;;;;;;5083121;28;20439;-70
2022/02/16 10:42:30;;;;;;;10.27;9.97;;;9.30;99.90;;;;;;5083307;28;20845;-70
2022/02/16 10:45:08;;;;;;;9.13;8.80;;;9.40;99.90;;;;;;5083255;28;20461;-71
2022/02/16 10:47:54;;;;;;;9.57;9.27;;;9.60;99.90;;;;;;5082828;28;20446;-71
2022/02/16 10:50:21;;;;;;;10.27;9.77;;;9.70;99.90;;;;;;5082832;28;20496;-73
2022/02/16 10:52:55;;;;;;;9.90;9.60;;;9.90;99.90;;;;;;5082807;28;20761;-72
2022/02/16 10:55:36;;;;;;;9.67;9.27;;;10.00;99.90;;;;;;5082755;28;20459;-73
2022/02/16 10:58:05;;;;;;;10.40;9.90;;;10.10;99.90;;;;;;5082823;28;20500;-73
2022/02/16 11:00:37;;;;;;;10.17;9.67;;;10.20;99.90;;;;;;5082774;28;20443;-71
2022/02/16 11:03:05;;;;;;;9.53;9.23;;;10.30;99.90;;;;;;5082500;28;20721;-72
2022/02/16 11:05:35;;;;;;;10.67;10.37;;;10.40;99.90;;;;;;5082649;28;20495;-72
2022/02/16 11:08:04;;;;;;;10.60;10.20;;;10.30;99.90;;;;;;5082441;28;20819;-73
2022/02/16 11:10:34;;;;;;;9.03;8.73;;;10.60;99.90;;;;;;5082242;28;20491;-73
2022/02/16 11:13:02;;;;;;;10.53;10.23;;;10.80;99.90;;;;;;5068572;28;20447;-73
2022/02/16 11:15:30;;;;;;;10.40;10.10;;;11.00;99.90;;;;;;5069262;28;20451;-73
2022/02/16 11:18:11;;;;;;;11.40;11.00;;;10.90;99.90;;;;;;5069239;28;20451;-73
2022/02/16 11:20:37;;;;;;;10.23;9.90;;;10.80;99.90;;;;;;5069041;28;20452;-73
2022/02/16 11:23:05;;;;;;;10.77;10.27;;;10.70;99.90;;;;;;5069055;28;20451;-73
2022/02/16 11:25:34;;;;;;;9.97;9.67;;;10.90;99.90;;;;;;5068979;28;20479;-73
2022/02/16 11:28:01;;;;;;;10.07;9.77;;;11.00;99.90;;;;;;5070616;28;20511;-72
2022/02/16 11:30:36;;;;;;;9.97;9.67;;;11.00;99.90;;;;;;5069641;28;20487;-72
2022/02/16 11:33:18;;;;;;;10.30;10.00;;;11.10;99.90;;;;;;5068908;28;20854;-73
2022/02/16 11:35:48;;;;;;;9.83;9.53;;;11.30;99.90;;;;;;5069026;28;20499;-73
2022/02/16 11:38:17;;;;;;;9.70;9.40;;;11.40;99.90;;;;;;5069059;28;20463;-73
2022/02/16 11:40:46;;;;;;;9.90;9.50;;;11.30;99.90;;;;;;5069219;28;20459;-73
2022/02/16 11:43:14;;;;;;;9.80;9.40;;;11.40;99.90;;;;;;5071115;28;20458;-73
2022/02/16 11:45:52;;;;;;;9.20;8.90;;;11.60;99.90;;;;;;5072824;28;20444;-73
2022/02/16 11:48:41;;;;;;;9.47;9.17;;;11.80;99.90;;;;;;5071091;28;20650;-73
2022/02/16 11:51:33;;;;;;;9.70;9.40;;;11.90;99.90;;;;;;5072119;28;20498;-73
2022/02/16 11:54:55;;;;;;;9.70;9.40;;;12.00;99.90;;;;;;5072786;28;20512;-73
2022/02/16 11:57:47;;;;;;;10.40;10.00;;;11.90;99.90;;;;;;5068714;28;21008;-73
2022/02/16 12:00:32;;;;;;;10.00;9.70;;;12.00;99.90;;;;;;5068535;28;20447;-73
2022/02/16 12:03:18;;;;;;;9.97;9.67;;;12.20;99.90;;;;;;5068337;28;20478;-74
2022/02/16 12:06:00;;;;;;;9.67;9.37;;;12.20;99.90;;;;;;5068505;28;20503;-73
2022/02/16 12:08:29;;;;;;;10.30;9.90;;;12.20;99.90;;;;;;5068468;28;20466;-73
2022/02/16 12:10:57;;;;;;;9.70;9.40;;;12.20;99.90;;;;;;5068169;28;20502;-73
2022/02/16 12:13:27;;;;;;;10.10;9.80;;;11.90;99.90;;;;;;5068029;28;20436;-73
2022/02/16 12:16:00;;;;;;;9.80;9.50;;;12.10;99.90;;;;;;5068135;28;20525;-73
2022/02/16 12:18:28;;;;;;;10.97;10.57;;;12.20;99.90;;;;;;5068286;28;20494;-72
2022/02/16 12:20:56;;;;;;;11.97;11.57;;;12.30;99.90;;;;;;5068164;28;20452;-73
2022/02/16 12:23:23;;;;;;;12.10;11.70;;;12.10;99.90;;;;;;5066710;28;20516;-72
2022/02/16 12:26:09;;;;;;;11.53;11.13;;;11.60;99.90;;;;;;5067843;28;20950;-73
2022/02/16 12:28:50;;;;;;;10.83;10.43;;;11.40;99.90;;;;;;5067840;28;20883;-72
2022/02/16 12:31:17;;;;;;;10.80;10.50;;;11.40;99.90;;;;;;5067776;28;20852;-73
2022/02/16 12:33:52;;;;;;;13.20;12.80;;;11.50;99.90;;;;;;5068192;28;20465;-73
2022/02/16 12:36:18;;;;;;;15.30;14.80;;;11.50;99.90;;;;;;5067712;28;21090;-73
2022/02/16 12:38:47;;;;;;;14.53;14.03;;;11.30;99.90;;;;;;5067803;28;20930;-73
2022/02/16 12:41:18;;;;;;;14.90;14.40;;;11.20;99.90;;;;;;5067886;28;20554;-72
2022/02/16 12:43:51;;;;;;;16.10;15.50;;;11.00;99.90;;;;;;5067867;28;20982;-73
2022/02/16 12:46:18;;;;;;;16.10;15.60;;;11.00;99.90;;;;;;5067772;28;20447;-73
2022/02/16 12:48:49;;;;;;;16.50;15.90;;;11.00;99.90;;;;;;5067795;28;20459;-74
2022/02/16 12:51:28;;;;;;;14.93;14.33;;;11.00;99.90;;;;;;5067464;28;20487;-72
2022/02/16 12:53:57;;;;;;;14.70;14.20;;;11.00;99.90;;;;;;5067357;28;20495;-72
2022/02/16 12:56:25;;;;;;;14.13;13.73;;;11.10;99.90;;;;;;5067471;28;20464;-73
2022/02/16 12:58:51;;;;;;;13.90;13.50;;;11.10;99.90;;;;;;5067447;28;20444;-72
2022/02/16 13:01:18;;;;;;;13.17;12.77;;;11.10;99.90;;;;;;5067194;28;20454;-73
2022/02/16 13:03:47;;;;;;;12.70;12.20;;;11.20;99.90;;;;;;5067477;28;20455;-73
2022/02/16 13:06:17;;;;;;;12.10;11.70;;;11.20;99.90;;;;;;5067599;28;20546;-73
2022/02/16 13:08:44;;;;;;;10.90;10.60;;;11.30;99.90;;;;;;5067436;28;20451;-73
2022/02/16 13:11:11;;;;;;;10.73;10.43;;;11.30;99.90;;;;;;5067066;28;20547;-73
2022/02/16 13:13:38;;;;;;;9.67;9.37;;;11.40;99.90;;;;;;5067137;28;20455;-73
2022/02/16 13:16:06;;;;;;;10.87;10.50;;;11.50;99.90;;;;;;5067048;28;20447;-72
2022/02/16 13:18:35;;;;;;;10.70;10.40;;;11.60;99.90;;;;;;5067177;28;20458;-72
2022/02/16 13:21:16;;;;;;;9.70;9.40;;;11.80;99.90;;;;;;5067081;28;20816;-72
2022/02/16 13:23:43;;;;;;;9.77;9.47;;;11.80;99.90;;;;;;5067408;28;20787;-72
2022/02/16 13:26:12;;;;;;;10.00;9.70;;;11.90;99.90;;;;;;5067173;28;20451;-73
2022/02/16 13:28:40;;;;;;;10.70;10.10;;;12.00;99.90;;;;;;5067056;28;20451;-73
2022/02/16 13:31:17;;;;;;;10.10;9.80;;;12.10;99.90;;;;;;5066940;28;20487;-73
2022/02/16 13:33:55;;;;;;;9.67;9.37;;;12.10;99.90;;;;;;5066681;28;20950;-73
2022/02/16 13:36:27;;;;;;;10.87;10.47;;;12.20;99.90;;;;;;5066701;28;20866;-73
2022/02/16 13:39:12;;;;;;;10.00;9.70;;;12.20;99.90;;;;;;5067028;28;20448;-73
2022/02/16 13:41:51;;;;;;;10.20;9.90;;;12.20;99.90;;;;;;5066837;28;20443;-73
2022/02/16 13:44:26;;;;;;;9.67;9.37;;;12.30;99.90;;;;;;5066776;28;20538;-73
2022/02/16 13:46:54;;;;;;;10.33;10.03;;;12.30;99.90;;;;;;5066652;28;20447;-74
2022/02/16 13:49:23;;;;;;;10.43;10.13;;;12.40;99.90;;;;;;5066732;28;20538;-74
2022/02/16 13:51:57;;;;;;;9.60;9.30;;;12.40;99.90;;;;;;5066664;28;20845;-73
2022/02/16 13:54:26;;;;;;;10.10;9.80;;;12.50;99.90;;;;;;5066647;28;20447;-73
2022/02/16 13:56:56;;;;;;;9.50;9.20;;;12.50;99.90;;;;;;5066440;28;20496;-74
2022/02/16 13:59:23;;;;;;;10.10;9.80;;;12.50;99.90;;;;;;5066554;28;20451;-73
2022/02/16 14:02:08;;;;;;;10.00;9.60;;;12.50;99.90;;;;;;5066344;28;20966;-73
2022/02/16 14:04:35;;;;;;;9.97;9.60;;;12.50;99.90;;;;;;5066329;28;20531;-73
2022/02/16 14:07:04;;;;;;;9.73;9.43;;;12.50;99.90;;;;;;5066395;28;20455;-73
2022/02/16 14:09:31;;;;;;;9.90;9.60;;;12.50;99.90;;;;;;5066289;28;20471;-72
2022/02/16 14:11:58;;;;;;;9.30;9.00;;;12.50;99.90;;;;;;5066672;28;20487;-73
2022/02/16 14:14:25;;;;;;;9.60;9.30;;;12.50;99.90;;;;;;5066650;28;20447;-73
2022/02/16 14:16:52;;;;;;;10.40;10.00;;;12.50;99.90;;;;;;5066287;28;20439;-74
2022/02/16 14:19:24;;;;;;;9.83;9.53;;;12.60;99.90;;;;;;5066306;28;20820;-74
2022/02/16 14:21:54;;;;;;;9.70;9.40;;;12.70;99.90;;;;;;5066185;28;20443;-74
2022/02/16 14:24:23;;;;;;;10.40;10.10;;;12.70;99.90;;;;;;5066272;28;20451;-73
2022/02/16 14:26:50;;;;;;;10.10;9.80;;;12.70;99.90;;;;;;5066309;28;20486;-74
2022/02/16 14:29:17;;;;;;;9.63;9.23;;;12.60;99.90;;;;;;5066141;28;20458;-74
2022/02/16 14:31:43;;;;;;;9.80;9.50;;;12.70;99.90;;;;;;5066376;28;20992;-74
2022/02/16 14:34:10;;;;;;;9.90;9.60;;;12.90;99.90;;;;;;5066360;28;20447;-74
2022/02/16 14:36:39;;;;;;;9.90;9.50;;;13.00;99.90;;;;;;5066132;28;20503;-73
2022/02/16 14:39:06;;;;;;;9.73;9.33;;;12.90;99.90;;;;;;5066072;28;20463;-73
2022/02/16 14:41:35;;;;;;;9.83;9.53;;;12.80;99.90;;;;;;5066052;28;20538;-72
2022/02/16 14:44:02;;;;;;;9.83;9.53;;;12.80;99.90;;;;;;5066003;28;20458;-73
2022/02/16 14:46:30;;;;;;;9.77;9.47;;;12.80;99.90;;;;;;5066739;28;21010;-73
2022/02/16 14:48:57;;;;;;;9.70;9.40;;;12.80;99.90;;;;;;5069761;28;20451;-73
2022/02/16 14:51:24;;;;;;;10.27;9.87;;;12.60;99.90;;;;;;5069354;28;20894;-74
2022/02/16 14:53:51;;;;;;;9.80;9.50;;;12.60;99.90;;;;;;5069471;28;20751;-73
2022/02/16 14:56:19;;;;;;;10.50;10.20;;;12.50;99.90;;;;;;5069223;28;20480;-73
2022/02/16 14:58:48;;;;;;;9.93;9.63;;;12.60;99.90;;;;;;5069547;28;20819;-73
2022/02/16 15:01:14;;;;;;;10.27;9.87;;;12.70;99.90;;;;;;5069410;28;21508;-73
2022/02/16 15:03:42;;;;;;;10.23;9.93;;;12.70;99.90;;;;;;5069471;28;20458;-73
2022/02/16 15:06:09;;;;;;;10.87;10.47;;;12.60;99.90;;;;;;5069358;28;20451;-73
2022/02/16 15:08:36;;;;;;;11.00;10.40;;;12.60;99.90;;;;;;5069231;28;20439;-73
2022/02/16 15:11:03;;;;;;;10.73;10.30;;;12.50;99.90;;;;;;5068912;28;20862;-73
2022/02/16 15:13:29;;;;;;;11.50;11.00;;;12.40;99.90;;;;;;5069260;28;20462;-73
2022/02/16 15:15:57;;;;;;;10.13;9.83;;;12.30;99.90;;;;;;5069355;28;20443;-73
2022/02/16 15:18:24;;;;;;;10.80;10.40;;;12.20;99.90;;;;;;5069005;28;20877;-73
2022/02/16 15:20:51;;;;;;;8.30;8.10;;;12.10;99.90;;;;;;5069023;28;20818;-74
2022/02/16 15:23:19;;;;;;;10.17;9.87;;;12.20;99.90;;;;;;5069138;28;20824;-75
2022/02/16 15:25:46;;;;;;;10.30;10.00;;;12.20;99.90;;;;;;5069021;28;20490;-74
2022/02/16 15:28:13;;;;;;;10.20;9.90;;;12.20;99.90;;;;;;5069102;28;20934;-73
2022/02/16 15:30:41;;;;;;;9.23;8.93;;;12.20;99.90;;;;;;5068958;28;20451;-74
2022/02/16 15:33:10;;;;;;;9.73;9.37;;;12.20;99.90;;;;;;5068704;28;20895;-74
2022/02/16 15:35:38;;;;;;;9.50;9.20;;;12.20;99.90;;;;;;5068797;28;20439;-74
2022/02/16 15:38:06;;;;;;;9.87;9.50;;;12.20;99.90;;;;;;5068800;28;20990;-74
2022/02/16 15:40:33;;;;;;;9.53;9.13;;;12.20;99.90;;;;;;5068622;28;20458;-74
2022/02/16 15:42:59;;;;;;;10.23;9.93;;;12.30;99.90;;;;;;5068703;28;20447;-74
2022/02/16 15:45:26;;;;;;;10.07;9.77;;;12.40;99.90;;;;;;5068749;28;20443;-74
2022/02/16 15:47:53;;;;;;;10.77;10.27;;;12.40;99.90;;;;;;5068451;28;20841;-74
2022/02/16 15:50:22;;;;;;;9.87;9.57;;;12.40;99.90;;;;;;5068497;28;20818;-74
2022/02/16 15:52:49;;;;;;;9.87;9.57;;;12.40;99.90;;;;;;5068298;28;20487;-74
2022/02/16 15:55:17;;;;;;;9.70;9.40;;;12.40;99.90;;;;;;5068581;28;20443;-74
2022/02/16 15:57:44;;;;;;;10.30;10.00;;;12.40;99.90;;;;;;5068421;28;20480;-74
2022/02/16 16:00:12;;;;;;;10.80;10.37;;;12.40;99.90;;;;;;5068609;28;20451;-73
2022/02/16 16:02:38;;;;;;;9.53;9.23;;;12.40;99.90;;;;;;5068163;28;20475;-73
2022/02/16 16:05:08;;;;;;;10.00;9.70;;;12.40;99.90;;;;;;5068318;28;20499;-73
2022/02/16 16:07:36;;;;;;;9.90;9.60;;;12.40;99.90;;;;;;5068314;28;20458;-74
2022/02/16 16:10:04;;;;;;;9.80;9.50;;;12.40;99.90;;;;;;5067916;28;20848;-74
2022/02/16 16:12:30;;;;;;;9.77;9.37;;;12.40;99.90;;;;;;5068221;28;20539;-74
2022/02/16 16:14:57;;;;;;;9.63;9.33;;;12.40;99.90;;;;;;5068429;28;20942;-74
2022/02/16 16:17:24;;;;;;;10.33;10.03;;;12.30;99.90;;;;;;5068021;28;20452;-74
2022/02/16 16:19:50;;;;;;;9.90;9.60;;;12.40;99.90;;;;;;5068059;28;20496;-74
2022/02/16 16:22:17;;;;;;;10.30;10.00;;;12.40;99.90;;;;;;5067973;28;20451;-74
2022/02/16 16:24:48;;;;;;;11.20;10.80;;;12.40;99.90;;;;;;5068164;28;20459;-75
2022/02/16 16:27:15;;;;;;;10.27;9.97;;;12.40;99.90;;;;;;5068232;28;20467;-74
2022/02/16 16:29:42;;;;;;;11.27;10.87;;;12.40;99.90;;;;;;5068311;28;20562;-74
2022/02/16 16:32:09;;;;;;;10.20;9.80;;;12.40;99.90;;;;;;5067829;28;20519;-74
2022/02/16 16:34:36;;;;;;;10.03;9.73;;;12.30;99.90;;;;;;5067917;28;20881;-74
2022/02/16 16:37:03;;;;;;;11.10;10.60;;;12.30;99.90;;;;;;5067832;28;20530;-74
2022/02/16 16:39:30;;;;;;;10.27;9.93;;;12.40;99.90;;;;;;5067740;28;21026;-74
2022/02/16 16:41:58;;;;;;;9.97;9.67;;;12.30;99.90;;;;;;5067895;28;20451;-75
2022/02/16 16:44:25;;;;;;;9.80;9.50;;;12.30;99.90;;;;;;5067668;28;20455;-74
2022/02/16 16:46:52;;;;;;;10.33;10.03;;;12.30;99.90;;;;;;5067545;28;20455;-74
2022/02/16 16:49:18;;;;;;;10.50;10.10;;;12.20;99.90;;;;;;5067488;28;20451;-74
2022/02/16 16:51:45;;;;;;;9.17;8.87;;;12.20;99.90;;;;;;5067540;28;20483;-74
2022/02/16 16:54:12;;;;;;;10.30;10.00;;;12.20;99.90;;;;;;5067605;28;20960;-74
2022/02/16 16:56:41;;;;;;;10.50;10.13;;;12.10;99.90;;;;;;5067709;28;20459;-74
2022/02/16 16:59:11;;;;;;;10.00;9.70;;;12.00;99.90;;;;;;5067475;28;20459;-74
2022/02/16 17:01:41;;;;;;;9.70;9.40;;;11.90;99.90;;;;;;5067228;28;20459;-74
2022/02/16 17:04:07;;;;;;;9.77;9.47;;;12.00;99.90;;;;;;5067400;28;21041;-73
2022/02/16 17:06:34;;;;;;;9.33;9.03;;;12.00;99.90;;;;;;5067282;28;20459;-73
2022/02/16 17:09:01;;;;;;;9.43;9.13;;;12.00;99.90;;;;;;5066675;28;20458;-73
2022/02/16 17:11:28;;;;;;;9.20;8.90;;;12.00;99.90;;;;;;5067331;28;20475;-73
2022/02/16 17:13:55;;;;;;;9.97;9.67;;;12.10;99.90;;;;;;5067241;28;20945;-74
2022/02/16 17:16:23;;;;;;;9.47;9.17;;;12.10;99.90;;;;;;5067031;28;20818;-74
2022/02/16 17:18:50;;;;;;;10.10;9.70;;;12.10;99.90;;;;;;5066963;28;20710;-74
2022/02/16 17:21:19;;;;;;;9.80;9.50;;;12.20;99.90;;;;;;5067111;28;20482;-74
2022/02/16 17:23:45;;;;;;;9.13;8.83;;;12.20;99.90;;;;;;5067246;28;20496;-74
2022/02/16 17:26:12;;;;;;;10.17;9.87;;;12.10;99.90;;;;;;5067139;28;20459;-74
2022/02/16 17:28:39;;;;;;;10.03;9.67;;;12.20;99.90;;;;;;5067080;28;20447;-74
2022/02/16 17:31:06;;;;;;;9.90;9.60;;;12.20;99.90;;;;;;5066929;28;20458;-74
2022/02/16 17:33:34;;;;;;;10.00;9.70;;;12.20;99.90;;;;;;5066714;28;20491;-74
2022/02/16 17:36:00;;;;;;;10.40;10.07;;;12.20;99.90;;;;;;5066861;28;20451;-74
2022/02/16 17:38:27;;;;;;;10.47;10.10;;;12.20;99.90;;;;;;5067028;28;20460;-74
2022/02/16 17:40:54;;;;;;;9.53;9.23;;;12.10;99.90;;;;;;5066868;28;20454;-74
2022/02/16 17:43:21;;;;;;;10.40;10.00;;;12.00;99.90;;;;;;5066877;28;20847;-74
2022/02/16 17:45:47;;;;;;;9.50;9.20;;;11.90;99.90;;;;;;5066797;28;20910;-74
2022/02/16 17:48:14;;;;;;;10.00;9.70;;;11.80;99.90;;;;;;5066843;28;20503;-74
2022/02/16 17:50:45;;;;;;;9.17;8.87;;;11.80;99.90;;;;;;5066986;28;20512;-74
2022/02/16 17:53:12;;;;;;;9.60;9.30;;;11.80;99.90;;;;;;5067007;28;20536;-74
2022/02/16 17:55:39;;;;;;;10.50;10.20;;;11.80;99.90;;;;;;5066698;28;20949;-74
2022/02/16 17:58:06;;;;;;;10.27;9.97;;;11.70;99.90;;;;;;5066470;28;20458;-74
